sensor_id;sensor_type;location;lat;lon;timestamp;temperature;humidity
20416;DHT22;10367;52.202;5.996;2023-05-23T00:01:20;15.30;99.90
20416;DHT22;10367;52.202;5.996;2023-05-23T00:03:49;15.40;99.90
20416;DHT22;10367;52.202;5.996;2023-05-23T00:06:19;15.40;99.90
20416;DHT22;10367;52.202;5.996;2023-05-23T00:08:48;15.30;99.90
20416;DHT22;10367;52.202;5.996;2023-05-23T00:11:19;15.30;99.90
20416;DHT22;10367;52.202;5.996;2023-05-23T00:13:53;15.30;99.90
20416;DHT22;10367;52.202;5.996;2023-05-23T00:16:24;15.30;99.90
20416;DHT22;10367;52.202;5.996;2023-05-23T00:18:53;15.20;99.90
20416;DHT22;10367;52.202;5.996;2023-05-23T00:21:24;15.30;99.90
20416;DHT22;10367;52.202;5.996;2023-05-23T00:23:56;15.30;99.90
20416;DHT22;10367;52.202;5.996;2023-05-23T00:26:26;15.30;99.90
20416;DHT22;10367;52.202;5.996;2023-05-23T00:28:57;15.30;99.90
20416;DHT22;10367;52.202;5.996;2023-05-23T00:31:27;15.30;99.90
20416;DHT22;10367;52.202;5.996;2023-05-23T00:33:56;15.30;99.90
20416;DHT22;10367;52.202;5.996;2023-05-23T00:36:27;15.20;99.90
20416;DHT22;10367;52.202;5.996;2023-05-23T00:38:57;15.20;99.90
20416;DHT22;10367;52.202;5.996;2023-05-23T00:41:27;15.10;99.90
20416;DHT22;10367;52.202;5.996;2023-05-23T00:43:57;15.10;99.90
20416;DHT22;10367;52.202;5.996;2023-05-23T00:46:27;15.00;99.90
20416;DHT22;10367;52.202;5.996;2023-05-23T00:48:56;14.90;99.90
20416;DHT22;10367;52.202;5.996;2023-05-23T00:51:26;14.90;99.90
20416;DHT22;10367;52.202;5.996;2023-05-23T00:53:55;14.80;99.90
20416;DHT22;10367;52.202;5.996;2023-05-23T00:56:27;14.70;99.90
20416;DHT22;10367;52.202;5.996;2023-05-23T00:58:57;14.60;99.90
20416;DHT22;10367;52.202;5.996;2023-05-23T01:01:28;14.60;99.90
20416;DHT22;10367;52.202;5.996;2023-05-23T01:03:56;14.60;99.90
20416;DHT22;10367;52.202;5.996;2023-05-23T01:06:26;14.60;99.90
20416;DHT22;10367;52.202;5.996;2023-05-23T01:08:56;14.50;99.90
20416;DHT22;10367;52.202;5.996;2023-05-23T01:11:34;14.50;99.90
20416;DHT22;10367;52.202;5.996;2023-05-23T01:14:10;14.50;99.90
20416;DHT22;10367;52.202;5.996;2023-05-23T01:16:45;14.50;99.90
20416;DHT22;10367;52.202;5.996;2023-05-23T01:19:31;14.50;99.90
20416;DHT22;10367;52.202;5.996;2023-05-23T01:22:15;14.50;99.90
20416;DHT22;10367;52.202;5.996;2023-05-23T01:24:54;14.50;99.90
20416;DHT22;10367;52.202;5.996;2023-05-23T01:27:38;14.50;99.90
20416;DHT22;10367;52.202;5.996;2023-05-23T01:30:10;14.50;99.90
20416;DHT22;10367;52.202;5.996;2023-05-23T01:32:42;14.50;99.90
20416;DHT22;10367;52.202;5.996;2023-05-23T01:35:20;14.50;99.90
20416;DHT22;10367;52.202;5.996;2023-05-23T01:37:50;14.50;99.90
20416;DHT22;10367;52.202;5.996;2023-05-23T01:40:21;14.60;99.90
20416;DHT22;10367;52.202;5.996;2023-05-23T01:42:54;14.50;99.90
20416;DHT22;10367;52.202;5.996;2023-05-23T01:45:25;14.50;99.90
20416;DHT22;10367;52.202;5.996;2023-05-23T01:47:57;14.50;99.90
20416;DHT22;10367;52.202;5.996;2023-05-23T01:50:27;14.50;99.90
20416;DHT22;10367;52.202;5.996;2023-05-23T01:52:56;14.50;99.90
20416;DHT22;10367;52.202;5.996;2023-05-23T01:55:25;14.50;99.90
20416;DHT22;10367;52.202;5.996;2023-05-23T01:57:57;14.50;99.90
20416;DHT22;10367;52.202;5.996;2023-05-23T02:00:27;14.50;99.90
20416;DHT22;10367;52.202;5.996;2023-05-23T02:02:58;14.50;99.90
20416;DHT22;10367;52.202;5.996;2023-05-23T02:05:27;14.50;99.90
20416;DHT22;10367;52.202;5.996;2023-05-23T02:07:56;14.50;99.90
20416;DHT22;10367;52.202;5.996;2023-05-23T02:10:26;14.50;99.90
20416;DHT22;10367;52.202;5.996;2023-05-23T02:12:56;14.50;99.90
20416;DHT22;10367;52.202;5.996;2023-05-23T02:15:25;14.50;99.90
20416;DHT22;10367;52.202;5.996;2023-05-23T02:17:54;14.50;99.90
20416;DHT22;10367;52.202;5.996;2023-05-23T02:20:24;14.50;99.90
20416;DHT22;10367;52.202;5.996;2023-05-23T02:22:53;14.40;99.90
20416;DHT22;10367;52.202;5.996;2023-05-23T02:25:22;14.40;99.90
20416;DHT22;10367;52.202;5.996;2023-05-23T02:27:51;14.40;99.90
20416;DHT22;10367;52.202;5.996;2023-05-23T02:30:21;14.40;99.90
20416;DHT22;10367;52.202;5.996;2023-05-23T02:32:50;14.50;99.90
20416;DHT22;10367;52.202;5.996;2023-05-23T02:35:19;14.40;99.90
20416;DHT22;10367;52.202;5.996;2023-05-23T02:37:51;14.40;99.90
20416;DHT22;10367;52.202;5.996;2023-05-23T02:40:20;14.30;99.90
20416;DHT22;10367;52.202;5.996;2023-05-23T02:42:49;14.30;99.90
20416;DHT22;10367;52.202;5.996;2023-05-23T02:45:18;14.30;99.90
20416;DHT22;10367;52.202;5.996;2023-05-23T02:47:49;14.30;99.90
20416;DHT22;10367;52.202;5.996;2023-05-23T02:50:18;14.40;99.90
20416;DHT22;10367;52.202;5.996;2023-05-23T02:52:47;14.40;99.90
20416;DHT22;10367;52.202;5.996;2023-05-23T02:55:16;14.30;99.90
20416;DHT22;10367;52.202;5.996;2023-05-23T02:57:47;14.30;99.90
20416;DHT22;10367;52.202;5.996;2023-05-23T03:00:16;14.20;99.90
20416;DHT22;10367;52.202;5.996;2023-05-23T03:02:45;14.10;99.90
20416;DHT22;10367;52.202;5.996;2023-05-23T03:05:18;14.10;99.90
20416;DHT22;10367;52.202;5.996;2023-05-23T03:07:46;14.10;99.90
20416;DHT22;10367;52.202;5.996;2023-05-23T03:10:18;14.20;99.90
20416;DHT22;10367;52.202;5.996;2023-05-23T03:12:47;14.10;99.90
20416;DHT22;10367;52.202;5.996;2023-05-23T03:15:16;14.10;99.90
20416;DHT22;10367;52.202;5.996;2023-05-23T03:17:47;14.20;99.90
20416;DHT22;10367;52.202;5.996;2023-05-23T03:20:18;14.10;99.90
20416;DHT22;10367;52.202;5.996;2023-05-23T03:22:50;14.10;99.90
20416;DHT22;10367;52.202;5.996;2023-05-23T03:25:18;14.10;99.90
20416;DHT22;10367;52.202;5.996;2023-05-23T03:27:47;14.10;99.90
20416;DHT22;10367;52.202;5.996;2023-05-23T03:30:16;14.10;99.90
20416;DHT22;10367;52.202;5.996;2023-05-23T03:32:45;14.00;99.90
20416;DHT22;10367;52.202;5.996;2023-05-23T03:35:13;14.10;99.90
20416;DHT22;10367;52.202;5.996;2023-05-23T03:37:44;14.00;99.90
20416;DHT22;10367;52.202;5.996;2023-05-23T03:40:13;14.10;99.90
20416;DHT22;10367;52.202;5.996;2023-05-23T03:42:41;14.10;99.90
20416;DHT22;10367;52.202;5.996;2023-05-23T03:45:10;14.10;99.90
20416;DHT22;10367;52.202;5.996;2023-05-23T03:47:39;14.10;99.90
20416;DHT22;10367;52.202;5.996;2023-05-23T03:50:10;14.10;99.90
20416;DHT22;10367;52.202;5.996;2023-05-23T03:52:38;14.10;99.90
20416;DHT22;10367;52.202;5.996;2023-05-23T03:55:09;14.10;99.90
20416;DHT22;10367;52.202;5.996;2023-05-23T03:57:38;14.10;99.90
20416;DHT22;10367;52.202;5.996;2023-05-23T04:00:10;14.10;99.90
20416;DHT22;10367;52.202;5.996;2023-05-23T04:02:39;14.10;99.90
20416;DHT22;10367;52.202;5.996;2023-05-23T04:05:12;14.10;99.90
20416;DHT22;10367;52.202;5.996;2023-05-23T04:07:42;14.10;99.90
20416;DHT22;10367;52.202;5.996;2023-05-23T04:10:15;14.10;99.90
20416;DHT22;10367;52.202;5.996;2023-05-23T04:12:46;14.10;99.90
20416;DHT22;10367;52.202;5.996;2023-05-23T04:15:15;14.00;99.90
20416;DHT22;10367;52.202;5.996;2023-05-23T04:17:44;14.00;99.90
20416;DHT22;10367;52.202;5.996;2023-05-23T04:20:13;14.00;99.90
20416;DHT22;10367;52.202;5.996;2023-05-23T04:22:42;14.00;99.90
20416;DHT22;10367;52.202;5.996;2023-05-23T04:25:11;13.90;99.90
20416;DHT22;10367;52.202;5.996;2023-05-23T04:27:42;14.00;99.90
20416;DHT22;10367;52.202;5.996;2023-05-23T04:30:11;14.00;99.90
20416;DHT22;10367;52.202;5.996;2023-05-23T04:32:41;14.00;99.90
20416;DHT22;10367;52.202;5.996;2023-05-23T04:35:13;13.90;99.90
20416;DHT22;10367;52.202;5.996;2023-05-23T04:37:42;13.90;99.90
20416;DHT22;10367;52.202;5.996;2023-05-23T04:40:11;13.90;99.90
20416;DHT22;10367;52.202;5.996;2023-05-23T04:42:42;13.80;99.90
20416;DHT22;10367;52.202;5.996;2023-05-23T04:45:11;13.70;99.90
20416;DHT22;10367;52.202;5.996;2023-05-23T04:47:40;13.70;99.90
20416;DHT22;10367;52.202;5.996;2023-05-23T04:50:11;13.60;99.90
20416;DHT22;10367;52.202;5.996;2023-05-23T04:52:41;13.60;99.90
20416;DHT22;10367;52.202;5.996;2023-05-23T04:55:10;13.60;99.90
20416;DHT22;10367;52.202;5.996;2023-05-23T04:57:39;13.50;99.90
20416;DHT22;10367;52.202;5.996;2023-05-23T05:00:11;13.50;99.90
20416;DHT22;10367;52.202;5.996;2023-05-23T05:02:46;13.50;99.90
20416;DHT22;10367;52.202;5.996;2023-05-23T05:05:15;13.40;99.90
20416;DHT22;10367;52.202;5.996;2023-05-23T05:07:44;13.30;99.90
20416;DHT22;10367;52.202;5.996;2023-05-23T05:10:14;13.20;99.90
20416;DHT22;10367;52.202;5.996;2023-05-23T05:12:45;13.10;99.90
20416;DHT22;10367;52.202;5.996;2023-05-23T05:15:19;13.10;99.90
20416;DHT22;10367;52.202;5.996;2023-05-23T05:17:53;13.10;99.90
20416;DHT22;10367;52.202;5.996;2023-05-23T05:20:22;13.10;99.90
20416;DHT22;10367;52.202;5.996;2023-05-23T05:22:54;13.10;99.90
20416;DHT22;10367;52.202;5.996;2023-05-23T05:25:24;13.10;99.90
20416;DHT22;10367;52.202;5.996;2023-05-23T05:27:54;13.00;99.90
20416;DHT22;10367;52.202;5.996;2023-05-23T05:30:24;13.00;99.90
20416;DHT22;10367;52.202;5.996;2023-05-23T05:32:53;13.00;99.90
20416;DHT22;10367;52.202;5.996;2023-05-23T05:35:24;13.00;99.90
20416;DHT22;10367;52.202;5.996;2023-05-23T05:37:53;13.00;99.90
20416;DHT22;10367;52.202;5.996;2023-05-23T05:40:22;12.90;99.90
20416;DHT22;10367;52.202;5.996;2023-05-23T05:42:51;12.90;99.90
20416;DHT22;10367;52.202;5.996;2023-05-23T05:45:23;12.90;99.90
20416;DHT22;10367;52.202;5.996;2023-05-23T05:47:55;13.00;99.90
20416;DHT22;10367;52.202;5.996;2023-05-23T05:50:24;12.90;99.90
20416;DHT22;10367;52.202;5.996;2023-05-23T05:52:53;12.80;99.90
20416;DHT22;10367;52.202;5.996;2023-05-23T05:55:22;12.80;99.90
20416;DHT22;10367;52.202;5.996;2023-05-23T05:57:51;12.80;99.90
20416;DHT22;10367;52.202;5.996;2023-05-23T06:00:20;12.70;99.90
20416;DHT22;10367;52.202;5.996;2023-05-23T06:02:50;12.70;99.90
20416;DHT22;10367;52.202;5.996;2023-05-23T06:05:21;12.70;99.90
20416;DHT22;10367;52.202;5.996;2023-05-23T06:07:50;12.70;99.90
20416;DHT22;10367;52.202;5.996;2023-05-23T06:10:19;12.60;99.90
20416;DHT22;10367;52.202;5.996;2023-05-23T06:12:48;12.70;99.90
20416;DHT22;10367;52.202;5.996;2023-05-23T06:15:18;12.80;99.90
20416;DHT22;10367;52.202;5.996;2023-05-23T06:17:47;12.70;99.90
20416;DHT22;10367;52.202;5.996;2023-05-23T06:20:17;12.80;99.90
20416;DHT22;10367;52.202;5.996;2023-05-23T06:22:46;12.70;99.90
20416;DHT22;10367;52.202;5.996;2023-05-23T06:25:15;12.60;99.90
20416;DHT22;10367;52.202;5.996;2023-05-23T06:27:44;12.50;99.90
20416;DHT22;10367;52.202;5.996;2023-05-23T06:30:14;12.50;99.90
20416;DHT22;10367;52.202;5.996;2023-05-23T06:32:45;12.50;99.90
20416;DHT22;10367;52.202;5.996;2023-05-23T06:35:14;12.50;99.90
20416;DHT22;10367;52.202;5.996;2023-05-23T06:37:45;12.50;99.90
20416;DHT22;10367;52.202;5.996;2023-05-23T06:40:14;12.60;99.90
20416;DHT22;10367;52.202;5.996;2023-05-23T06:42:43;12.60;99.90
20416;DHT22;10367;52.202;5.996;2023-05-23T06:45:12;12.80;99.90
20416;DHT22;10367;52.202;5.996;2023-05-23T06:47:43;12.90;99.90
20416;DHT22;10367;52.202;5.996;2023-05-23T06:50:14;13.10;99.90
20416;DHT22;10367;52.202;5.996;2023-05-23T06:52:47;13.30;99.90
20416;DHT22;10367;52.202;5.996;2023-05-23T06:55:19;13.40;99.90
20416;DHT22;10367;52.202;5.996;2023-05-23T06:57:48;13.60;99.90
20416;DHT22;10367;52.202;5.996;2023-05-23T07:00:18;13.70;99.90
20416;DHT22;10367;52.202;5.996;2023-05-23T07:02:47;13.70;99.90
20416;DHT22;10367;52.202;5.996;2023-05-23T07:05:17;13.90;99.90
20416;DHT22;10367;52.202;5.996;2023-05-23T07:07:47;14.00;99.90
20416;DHT22;10367;52.202;5.996;2023-05-23T07:10:16;14.10;99.90
20416;DHT22;10367;52.202;5.996;2023-05-23T07:12:49;14.00;99.90
20416;DHT22;10367;52.202;5.996;2023-05-23T07:15:20;14.00;99.90
20416;DHT22;10367;52.202;5.996;2023-05-23T07:17:49;14.10;99.90
20416;DHT22;10367;52.202;5.996;2023-05-23T07:20:18;14.20;99.90
20416;DHT22;10367;52.202;5.996;2023-05-23T07:22:52;14.30;99.90
20416;DHT22;10367;52.202;5.996;2023-05-23T07:25:20;14.20;99.90
20416;DHT22;10367;52.202;5.996;2023-05-23T07:27:50;14.10;99.90
20416;DHT22;10367;52.202;5.996;2023-05-23T07:30:20;14.00;99.90
20416;DHT22;10367;52.202;5.996;2023-05-23T07:32:51;14.00;99.90
20416;DHT22;10367;52.202;5.996;2023-05-23T07:35:21;14.00;99.90
20416;DHT22;10367;52.202;5.996;2023-05-23T07:37:54;13.80;99.90
20416;DHT22;10367;52.202;5.996;2023-05-23T07:40:24;13.90;99.90
20416;DHT22;10367;52.202;5.996;2023-05-23T07:42:53;13.90;99.90
20416;DHT22;10367;52.202;5.996;2023-05-23T07:45:22;13.80;99.90
20416;DHT22;10367;52.202;5.996;2023-05-23T07:47:52;13.80;99.90
20416;DHT22;10367;52.202;5.996;2023-05-23T07:50:22;13.70;99.90
20416;DHT22;10367;52.202;5.996;2023-05-23T07:52:54;13.80;99.90
20416;DHT22;10367;52.202;5.996;2023-05-23T07:55:23;13.80;99.90
20416;DHT22;10367;52.202;5.996;2023-05-23T07:57:51;13.80;99.90
20416;DHT22;10367;52.202;5.996;2023-05-23T08:00:21;13.70;99.90
20416;DHT22;10367;52.202;5.996;2023-05-23T08:02:50;13.90;99.90
20416;DHT22;10367;52.202;5.996;2023-05-23T08:05:19;14.30;99.90
20416;DHT22;10367;52.202;5.996;2023-05-23T08:07:49;14.40;99.90
20416;DHT22;10367;52.202;5.996;2023-05-23T08:10:21;14.50;99.90
20416;DHT22;10367;52.202;5.996;2023-05-23T08:12:50;14.50;99.90
20416;DHT22;10367;52.202;5.996;2023-05-23T08:15:19;14.50;99.90
20416;DHT22;10367;52.202;5.996;2023-05-23T08:17:49;14.40;99.90
20416;DHT22;10367;52.202;5.996;2023-05-23T08:20:24;14.30;99.90
20416;DHT22;10367;52.202;5.996;2023-05-23T08:22:57;14.30;99.90
20416;DHT22;10367;52.202;5.996;2023-05-23T08:25:30;14.30;99.90
20416;DHT22;10367;52.202;5.996;2023-05-23T08:28:00;14.40;99.90
20416;DHT22;10367;52.202;5.996;2023-05-23T08:30:29;14.60;99.90
20416;DHT22;10367;52.202;5.996;2023-05-23T08:33:02;14.80;99.90
20416;DHT22;10367;52.202;5.996;2023-05-23T08:35:36;14.90;99.90
20416;DHT22;10367;52.202;5.996;2023-05-23T08:38:06;15.10;99.90
20416;DHT22;10367;52.202;5.996;2023-05-23T08:40:36;15.10;99.90
20416;DHT22;10367;52.202;5.996;2023-05-23T08:43:07;15.00;99.90
20416;DHT22;10367;52.202;5.996;2023-05-23T08:45:40;14.90;99.90
20416;DHT22;10367;52.202;5.996;2023-05-23T08:48:11;15.00;99.90
20416;DHT22;10367;52.202;5.996;2023-05-23T08:50:43;14.90;99.90
20416;DHT22;10367;52.202;5.996;2023-05-23T08:53:15;14.70;99.90
20416;DHT22;10367;52.202;5.996;2023-05-23T08:55:49;14.80;99.90
20416;DHT22;10367;52.202;5.996;2023-05-23T08:58:18;14.80;99.90
20416;DHT22;10367;52.202;5.996;2023-05-23T09:00:50;14.70;99.90
20416;DHT22;10367;52.202;5.996;2023-05-23T09:03:20;14.70;99.90
20416;DHT22;10367;52.202;5.996;2023-05-23T09:05:49;14.60;99.90
20416;DHT22;10367;52.202;5.996;2023-05-23T09:08:19;14.80;99.90
20416;DHT22;10367;52.202;5.996;2023-05-23T09:10:50;14.70;99.90
20416;DHT22;10367;52.202;5.996;2023-05-23T09:13:19;14.80;99.90
20416;DHT22;10367;52.202;5.996;2023-05-23T09:16:00;15.20;99.90
20416;DHT22;10367;52.202;5.996;2023-05-23T09:18:32;15.30;99.90
20416;DHT22;10367;52.202;5.996;2023-05-23T09:21:03;15.50;99.90
20416;DHT22;10367;52.202;5.996;2023-05-23T09:23:32;15.70;99.90
20416;DHT22;10367;52.202;5.996;2023-05-23T09:26:04;15.50;99.90
20416;DHT22;10367;52.202;5.996;2023-05-23T09:28:34;15.50;99.90
20416;DHT22;10367;52.202;5.996;2023-05-23T09:31:04;15.50;99.90
20416;DHT22;10367;52.202;5.996;2023-05-23T09:33:37;15.50;99.90
20416;DHT22;10367;52.202;5.996;2023-05-23T09:36:06;15.50;99.90
20416;DHT22;10367;52.202;5.996;2023-05-23T09:38:38;15.50;99.90
20416;DHT22;10367;52.202;5.996;2023-05-23T09:41:11;15.70;99.90
20416;DHT22;10367;52.202;5.996;2023-05-23T09:43:49;15.60;99.90
20416;DHT22;10367;52.202;5.996;2023-05-23T09:46:19;15.60;99.90
20416;DHT22;10367;52.202;5.996;2023-05-23T09:48:49;15.50;99.90
20416;DHT22;10367;52.202;5.996;2023-05-23T09:51:20;15.70;99.90
20416;DHT22;10367;52.202;5.996;2023-05-23T09:53:49;16.10;99.90
20416;DHT22;10367;52.202;5.996;2023-05-23T09:56:20;16.30;99.90
20416;DHT22;10367;52.202;5.996;2023-05-23T09:58:50;16.70;99.90
20416;DHT22;10367;52.202;5.996;2023-05-23T10:01:19;17.10;99.90
20416;DHT22;10367;52.202;5.996;2023-05-23T10:03:51;17.30;99.90
20416;DHT22;10367;52.202;5.996;2023-05-23T10:06:40;17.30;99.90
20416;DHT22;10367;52.202;5.996;2023-05-23T10:09:12;17.10;99.90
20416;DHT22;10367;52.202;5.996;2023-05-23T10:14:59;16.90;99.90
20416;DHT22;10367;52.202;5.996;2023-05-23T10:17:34;17.10;99.90
20416;DHT22;10367;52.202;5.996;2023-05-23T10:20:09;17.20;99.90
20416;DHT22;10367;52.202;5.996;2023-05-23T10:22:39;17.10;99.90
20416;DHT22;10367;52.202;5.996;2023-05-23T10:25:09;17.30;99.90
20416;DHT22;10367;52.202;5.996;2023-05-23T10:27:38;17.50;99.90
20416;DHT22;10367;52.202;5.996;2023-05-23T10:30:09;17.80;99.90
20416;DHT22;10367;52.202;5.996;2023-05-23T10:32:39;17.60;99.90
20416;DHT22;10367;52.202;5.996;2023-05-23T10:35:16;17.60;99.90
20416;DHT22;10367;52.202;5.996;2023-05-23T10:37:54;17.30;99.90
20416;DHT22;10367;52.202;5.996;2023-05-23T10:40:33;17.00;99.90
20416;DHT22;10367;52.202;5.996;2023-05-23T10:43:12;17.10;99.90
20416;DHT22;10367;52.202;5.996;2023-05-23T10:45:47;17.20;99.90
20416;DHT22;10367;52.202;5.996;2023-05-23T10:48:22;17.30;99.90
20416;DHT22;10367;52.202;5.996;2023-05-23T10:51:04;17.30;99.90
20416;DHT22;10367;52.202;5.996;2023-05-23T10:53:35;17.40;99.90
20416;DHT22;10367;52.202;5.996;2023-05-23T10:56:04;17.80;99.90
20416;DHT22;10367;52.202;5.996;2023-05-23T10:58:35;18.00;99.90
20416;DHT22;10367;52.202;5.996;2023-05-23T11:01:07;17.90;99.90
20416;DHT22;10367;52.202;5.996;2023-05-23T11:03:47;17.80;99.90
20416;DHT22;10367;52.202;5.996;2023-05-23T11:06:29;17.60;99.90
20416;DHT22;10367;52.202;5.996;2023-05-23T11:09:03;17.70;99.90
20416;DHT22;10367;52.202;5.996;2023-05-23T11:11:55;17.90;99.90
20416;DHT22;10367;52.202;5.996;2023-05-23T11:14:40;18.30;99.90
20416;DHT22;10367;52.202;5.996;2023-05-23T11:17:32;18.70;99.90
20416;DHT22;10367;52.202;5.996;2023-05-23T11:20:05;18.60;99.90
20416;DHT22;10367;52.202;5.996;2023-05-23T11:22:34;18.50;99.90
20416;DHT22;10367;52.202;5.996;2023-05-23T11:25:07;18.40;99.90
20416;DHT22;10367;52.202;5.996;2023-05-23T11:27:39;18.50;99.90
20416;DHT22;10367;52.202;5.996;2023-05-23T11:30:10;18.40;99.90
20416;DHT22;10367;52.202;5.996;2023-05-23T11:32:48;18.10;99.90
20416;DHT22;10367;52.202;5.996;2023-05-23T11:35:18;17.70;99.90
20416;DHT22;10367;52.202;5.996;2023-05-23T11:37:48;17.40;99.90
20416;DHT22;10367;52.202;5.996;2023-05-23T11:40:27;17.10;99.90
20416;DHT22;10367;52.202;5.996;2023-05-23T11:43:01;17.00;99.90
20416;DHT22;10367;52.202;5.996;2023-05-23T11:45:31;17.00;99.90
20416;DHT22;10367;52.202;5.996;2023-05-23T11:48:06;16.90;99.90
20416;DHT22;10367;52.202;5.996;2023-05-23T11:50:43;16.80;99.90
20416;DHT22;10367;52.202;5.996;2023-05-23T11:53:12;16.90;99.90
20416;DHT22;10367;52.202;5.996;2023-05-23T11:55:50;17.10;99.90
20416;DHT22;10367;52.202;5.996;2023-05-23T11:58:21;17.20;99.90
20416;DHT22;10367;52.202;5.996;2023-05-23T12:00:50;17.70;99.90
20416;DHT22;10367;52.202;5.996;2023-05-23T12:03:23;18.00;99.90
20416;DHT22;10367;52.202;5.996;2023-05-23T12:05:53;18.50;99.90
20416;DHT22;10367;52.202;5.996;2023-05-23T12:08:22;18.90;99.90
20416;DHT22;10367;52.202;5.996;2023-05-23T12:10:55;19.20;99.90
20416;DHT22;10367;52.202;5.996;2023-05-23T12:13:26;19.00;99.90
20416;DHT22;10367;52.202;5.996;2023-05-23T12:15:56;18.40;99.90
20416;DHT22;10367;52.202;5.996;2023-05-23T12:18:29;18.10;99.90
20416;DHT22;10367;52.202;5.996;2023-05-23T12:21:01;17.80;99.90
20416;DHT22;10367;52.202;5.996;2023-05-23T12:23:33;17.60;99.90
20416;DHT22;10367;52.202;5.996;2023-05-23T12:26:04;17.80;99.90
20416;DHT22;10367;52.202;5.996;2023-05-23T12:28:35;17.80;99.90
20416;DHT22;10367;52.202;5.996;2023-05-23T12:31:12;17.90;99.90
20416;DHT22;10367;52.202;5.996;2023-05-23T12:33:45;18.30;99.90
20416;DHT22;10367;52.202;5.996;2023-05-23T12:36:21;18.20;99.90
20416;DHT22;10367;52.202;5.996;2023-05-23T12:38:50;17.70;99.90
20416;DHT22;10367;52.202;5.996;2023-05-23T12:41:21;17.50;99.90
20416;DHT22;10367;52.202;5.996;2023-05-23T12:43:51;17.10;99.90
20416;DHT22;10367;52.202;5.996;2023-05-23T12:46:21;16.80;99.90
20416;DHT22;10367;52.202;5.996;2023-05-23T12:48:51;16.80;99.90
20416;DHT22;10367;52.202;5.996;2023-05-23T12:51:21;16.90;99.90
20416;DHT22;10367;52.202;5.996;2023-05-23T12:53:51;17.10;99.90
20416;DHT22;10367;52.202;5.996;2023-05-23T12:56:20;17.60;99.90
20416;DHT22;10367;52.202;5.996;2023-05-23T12:58:49;18.40;99.90
20416;DHT22;10367;52.202;5.996;2023-05-23T13:01:20;18.60;99.90
20416;DHT22;10367;52.202;5.996;2023-05-23T13:03:51;18.50;99.90
20416;DHT22;10367;52.202;5.996;2023-05-23T13:06:20;18.10;99.90
20416;DHT22;10367;52.202;5.996;2023-05-23T13:08:49;18.40;99.90
20416;DHT22;10367;52.202;5.996;2023-05-23T13:11:21;19.10;99.90
20416;DHT22;10367;52.202;5.996;2023-05-23T13:13:50;18.70;99.90
20416;DHT22;10367;52.202;5.996;2023-05-23T13:16:19;18.40;99.90
20416;DHT22;10367;52.202;5.996;2023-05-23T13:18:48;18.30;99.90
20416;DHT22;10367;52.202;5.996;2023-05-23T13:21:18;17.80;99.90
20416;DHT22;10367;52.202;5.996;2023-05-23T13:23:50;17.90;99.90
20416;DHT22;10367;52.202;5.996;2023-05-23T13:26:19;18.60;99.90
20416;DHT22;10367;52.202;5.996;2023-05-23T13:28:49;18.60;99.90
20416;DHT22;10367;52.202;5.996;2023-05-23T13:31:18;18.20;99.90
20416;DHT22;10367;52.202;5.996;2023-05-23T13:33:48;17.90;99.90
20416;DHT22;10367;52.202;5.996;2023-05-23T13:36:18;17.90;99.90
20416;DHT22;10367;52.202;5.996;2023-05-23T13:38:51;18.40;99.90
20416;DHT22;10367;52.202;5.996;2023-05-23T13:41:20;18.80;99.90
20416;DHT22;10367;52.202;5.996;2023-05-23T13:43:49;18.80;99.90
20416;DHT22;10367;52.202;5.996;2023-05-23T13:46:19;18.40;99.90
20416;DHT22;10367;52.202;5.996;2023-05-23T13:48:48;18.00;99.90
20416;DHT22;10367;52.202;5.996;2023-05-23T13:51:18;17.80;99.90
20416;DHT22;10367;52.202;5.996;2023-05-23T13:53:48;18.20;99.90
20416;DHT22;10367;52.202;5.996;2023-05-23T13:56:18;18.40;99.90
20416;DHT22;10367;52.202;5.996;2023-05-23T13:58:47;17.90;99.90
20416;DHT22;10367;52.202;5.996;2023-05-23T14:01:16;17.90;99.90
20416;DHT22;10367;52.202;5.996;2023-05-23T14:03:45;17.80;99.90
20416;DHT22;10367;52.202;5.996;2023-05-23T14:06:14;18.00;99.90
20416;DHT22;10367;52.202;5.996;2023-05-23T14:08:45;17.70;99.90
20416;DHT22;10367;52.202;5.996;2023-05-23T14:11:14;17.40;99.90
20416;DHT22;10367;52.202;5.996;2023-05-23T14:13:43;18.00;99.90
20416;DHT22;10367;52.202;5.996;2023-05-23T14:16:13;18.90;99.90
20416;DHT22;10367;52.202;5.996;2023-05-23T14:18:42;19.20;99.20
20416;DHT22;10367;52.202;5.996;2023-05-23T14:21:11;19.00;98.80
20416;DHT22;10367;52.202;5.996;2023-05-23T14:23:40;18.40;99.20
20416;DHT22;10367;52.202;5.996;2023-05-23T14:26:11;17.90;99.90
20416;DHT22;10367;52.202;5.996;2023-05-23T14:28:40;17.70;99.90
20416;DHT22;10367;52.202;5.996;2023-05-23T14:31:09;17.80;99.90
20416;DHT22;10367;52.202;5.996;2023-05-23T14:33:38;17.70;99.90
20416;DHT22;10367;52.202;5.996;2023-05-23T14:36:08;17.60;99.90
20416;DHT22;10367;52.202;5.996;2023-05-23T14:38:39;17.90;99.70
20416;DHT22;10367;52.202;5.996;2023-05-23T14:41:13;18.10;99.40
20416;DHT22;10367;52.202;5.996;2023-05-23T14:43:42;18.50;98.70
20416;DHT22;10367;52.202;5.996;2023-05-23T14:46:12;19.00;98.30
20416;DHT22;10367;52.202;5.996;2023-05-23T14:48:44;19.30;97.60
20416;DHT22;10367;52.202;5.996;2023-05-23T14:51:17;19.10;97.10
20416;DHT22;10367;52.202;5.996;2023-05-23T14:54:08;18.80;97.70
20416;DHT22;10367;52.202;5.996;2023-05-23T14:56:41;19.10;97.60
20416;DHT22;10367;52.202;5.996;2023-05-23T14:59:14;19.00;96.90
20416;DHT22;10367;52.202;5.996;2023-05-23T15:01:44;19.50;96.10
20416;DHT22;10367;52.202;5.996;2023-05-23T15:04:14;19.70;95.80
20416;DHT22;10367;52.202;5.996;2023-05-23T15:06:46;19.20;95.80
20416;DHT22;10367;52.202;5.996;2023-05-23T15:09:16;18.60;95.90
20416;DHT22;10367;52.202;5.996;2023-05-23T15:11:51;18.30;96.00
20416;DHT22;10367;52.202;5.996;2023-05-23T15:14:20;18.50;95.90
20416;DHT22;10367;52.202;5.996;2023-05-23T15:16:49;18.60;95.40
20416;DHT22;10367;52.202;5.996;2023-05-23T15:19:18;18.40;94.80
20416;DHT22;10367;52.202;5.996;2023-05-23T15:21:49;18.00;94.60
20416;DHT22;10367;52.202;5.996;2023-05-23T15:24:22;17.80;94.90
20416;DHT22;10367;52.202;5.996;2023-05-23T15:26:56;18.20;94.30
20416;DHT22;10367;52.202;5.996;2023-05-23T15:29:45;18.60;93.80
20416;DHT22;10367;52.202;5.996;2023-05-23T15:32:14;19.00;93.40
20416;DHT22;10367;52.202;5.996;2023-05-23T15:34:44;19.30;92.70
20416;DHT22;10367;52.202;5.996;2023-05-23T15:37:13;19.40;92.60
20416;DHT22;10367;52.202;5.996;2023-05-23T15:39:42;19.30;92.70
20416;DHT22;10367;52.202;5.996;2023-05-23T15:42:13;19.00;93.10
20416;DHT22;10367;52.202;5.996;2023-05-23T15:44:42;19.00;92.90
20416;DHT22;10367;52.202;5.996;2023-05-23T15:47:13;18.70;93.40
20416;DHT22;10367;52.202;5.996;2023-05-23T15:49:42;18.80;93.10
20416;DHT22;10367;52.202;5.996;2023-05-23T15:52:12;18.40;92.80
20416;DHT22;10367;52.202;5.996;2023-05-23T15:54:41;17.90;93.20
20416;DHT22;10367;52.202;5.996;2023-05-23T15:57:11;17.60;93.60